sensor_id;sensor_type;location;lat;lon;timestamp;P1;durP1;ratioP1;P2;durP2;ratioP2
35648;SDS011;21768;48.562;13.414;2022-11-20T00:01:45;31.80;;;14.52;;
35648;SDS011;21768;48.562;13.414;2022-11-20T00:04:10;28.95;;;13.75;;
35648;SDS011;21768;48.562;13.414;2022-11-20T00:06:37;30.08;;;14.30;;
35648;SDS011;21768;48.562;13.414;2022-11-20T00:09:03;32.88;;;15.02;;
35648;SDS011;21768;48.562;13.414;2022-11-20T00:11:30;29.70;;;14.88;;
35648;SDS011;21768;48.562;13.414;2022-11-20T00:13:57;31.15;;;14.23;;
35648;SDS011;21768;48.562;13.414;2022-11-20T00:16:24;32.55;;;14.95;;
35648;SDS011;21768;48.562;13.414;2022-11-20T00:18:51;32.65;;;14.48;;
35648;SDS011;21768;48.562;13.414;2022-11-20T00:21:19;30.80;;;14.52;;
35648;SDS011;21768;48.562;13.414;2022-11-20T00:23:46;31.98;;;15.02;;
35648;SDS011;21768;48.562;13.414;2022-11-20T00:26:15;32.00;;;15.80;;
35648;SDS011;21768;48.562;13.414;2022-11-20T00:28:42;36.17;;;15.60;;
35648;SDS011;21768;48.562;13.414;2022-11-20T00:31:13;32.55;;;15.38;;
35648;SDS011;21768;48.562;13.414;2022-11-20T00:33:40;34.85;;;15.70;;
35648;SDS011;21768;48.562;13.414;2022-11-20T00:36:07;35.80;;;15.60;;
35648;SDS011;21768;48.562;13.414;2022-11-20T00:38:34;35.92;;;15.27;;
35648;SDS011;21768;48.562;13.414;2022-11-20T00:41:01;34.20;;;14.63;;
35648;SDS011;21768;48.562;13.414;2022-11-20T00:43:29;29.85;;;14.68;;
35648;SDS011;21768;48.562;13.414;2022-11-20T00:48:30;32.95;;;15.00;;
35648;SDS011;21768;48.562;13.414;2022-11-20T00:50:56;36.78;;;15.45;;
35648;SDS011;21768;48.562;13.414;2022-11-20T00:53:22;84.05;;;28.13;;
35648;SDS011;21768;48.562;13.414;2022-11-20T00:55:57;39.67;;;17.40;;
35648;SDS011;21768;48.562;13.414;2022-11-20T00:58:24;31.90;;;15.07;;
35648;SDS011;21768;48.562;13.414;2022-11-20T01:00:54;29.80;;;14.73;;
35648;SDS011;21768;48.562;13.414;2022-11-20T01:03:25;29.33;;;14.70;;
35648;SDS011;21768;48.562;13.414;2022-11-20T01:05:51;32.38;;;15.07;;
35648;SDS011;21768;48.562;13.414;2022-11-20T01:08:16;36.90;;;15.50;;
35648;SDS011;21768;48.562;13.414;2022-11-20T01:10:41;33.55;;;14.95;;
35648;SDS011;21768;48.562;13.414;2022-11-20T01:13:07;33.95;;;15.05;;
35648;SDS011;21768;48.562;13.414;2022-11-20T01:15:51;34.03;;;14.95;;
35648;SDS011;21768;48.562;13.414;2022-11-20T01:18:16;35.83;;;14.57;;
35648;SDS011;21768;48.562;13.414;2022-11-20T01:20:42;33.90;;;14.63;;
35648;SDS011;21768;48.562;13.414;2022-11-20T01:23:07;34.40;;;15.13;;
35648;SDS011;21768;48.562;13.414;2022-11-20T01:25:33;34.72;;;14.70;;
35648;SDS011;21768;48.562;13.414;2022-11-20T01:27:59;31.10;;;14.95;;
35648;SDS011;21768;48.562;13.414;2022-11-20T01:30:24;30.40;;;14.77;;
35648;SDS011;21768;48.562;13.414;2022-11-20T01:32:50;35.60;;;15.27;;
35648;SDS011;21768;48.562;13.414;2022-11-20T01:35:15;33.55;;;15.65;;
35648;SDS011;21768;48.562;13.414;2022-11-20T01:37:41;32.75;;;14.52;;
35648;SDS011;21768;48.562;13.414;2022-11-20T01:40:06;31.55;;;14.27;;
35648;SDS011;21768;48.562;13.414;2022-11-20T01:42:32;30.88;;;14.43;;
35648;SDS011;21768;48.562;13.414;2022-11-20T01:48:13;32.65;;;15.00;;
35648;SDS011;21768;48.562;13.414;2022-11-20T01:50:39;28.80;;;13.23;;
35648;SDS011;21768;48.562;13.414;2022-11-20T01:53:08;32.83;;;14.18;;
35648;SDS011;21768;48.562;13.414;2022-11-20T01:55:43;33.33;;;14.80;;
35648;SDS011;21768;48.562;13.414;2022-11-20T01:58:16;29.08;;;13.13;;
35648;SDS011;21768;48.562;13.414;2022-11-20T02:00:47;32.72;;;14.10;;
35648;SDS011;21768;48.562;13.414;2022-11-20T02:03:13;28.73;;;12.45;;
35648;SDS011;21768;48.562;13.414;2022-11-20T02:05:45;30.17;;;13.23;;
35648;SDS011;21768;48.562;13.414;2022-11-20T02:08:16;24.70;;;12.37;;
35648;SDS011;21768;48.562;13.414;2022-11-20T02:10:43;25.08;;;11.88;;
35648;SDS011;21768;48.562;13.414;2022-11-20T02:13:08;25.95;;;12.60;;
35648;SDS011;21768;48.562;13.414;2022-11-20T02:15:53;25.63;;;12.27;;
35648;SDS011;21768;48.562;13.414;2022-11-20T02:18:19;28.85;;;13.20;;
35648;SDS011;21768;48.562;13.414;2022-11-20T02:20:46;26.63;;;12.25;;
35648;SDS011;21768;48.562;13.414;2022-11-20T02:23:24;29.52;;;13.55;;
35648;SDS011;21768;48.562;13.414;2022-11-20T02:25:50;25.90;;;12.82;;
35648;SDS011;21768;48.562;13.414;2022-11-20T02:28:18;26.30;;;12.27;;
35648;SDS011;21768;48.562;13.414;2022-11-20T02:30:44;27.25;;;13.00;;
35648;SDS011;21768;48.562;13.414;2022-11-20T02:33:09;30.00;;;13.10;;
35648;SDS011;21768;48.562;13.414;2022-11-20T02:38:04;26.80;;;13.35;;
35648;SDS011;21768;48.562;13.414;2022-11-20T02:40:29;24.88;;;12.63;;
35648;SDS011;21768;48.562;13.414;2022-11-20T02:42:55;31.40;;;13.48;;
35648;SDS011;21768;48.562;13.414;2022-11-20T02:45:21;26.35;;;12.70;;
35648;SDS011;21768;48.562;13.414;2022-11-20T02:47:47;31.63;;;13.23;;
35648;SDS011;21768;48.562;13.414;2022-11-20T02:50:13;31.92;;;12.95;;
35648;SDS011;21768;48.562;13.414;2022-11-20T02:52:39;32.88;;;13.18;;
35648;SDS011;21768;48.562;13.414;2022-11-20T02:55:04;22.85;;;11.93;;
35648;SDS011;21768;48.562;13.414;2022-11-20T02:57:30;28.75;;;13.05;;
35648;SDS011;21768;48.562;13.414;2022-11-20T02:59:55;29.63;;;13.50;;
35648;SDS011;21768;48.562;13.414;2022-11-20T03:02:20;23.50;;;11.57;;
35648;SDS011;21768;48.562;13.414;2022-11-20T03:04:46;25.73;;;12.85;;
35648;SDS011;21768;48.562;13.414;2022-11-20T03:07:11;28.65;;;11.65;;
35648;SDS011;21768;48.562;13.414;2022-11-20T03:09:37;22.70;;;11.40;;
35648;SDS011;21768;48.562;13.414;2022-11-20T03:12:02;23.95;;;11.65;;
35648;SDS011;21768;48.562;13.414;2022-11-20T03:14:28;23.30;;;11.82;;
35648;SDS011;21768;48.562;13.414;2022-11-20T03:16:53;29.17;;;12.63;;
35648;SDS011;21768;48.562;13.414;2022-11-20T03:19:19;25.25;;;11.90;;
35648;SDS011;21768;48.562;13.414;2022-11-20T03:21:44;25.30;;;12.27;;
35648;SDS011;21768;48.562;13.414;2022-11-20T03:24:09;26.80;;;12.25;;
35648;SDS011;21768;48.562;13.414;2022-11-20T03:26:35;26.38;;;12.02;;
35648;SDS011;21768;48.562;13.414;2022-11-20T03:29:02;27.40;;;12.50;;
35648;SDS011;21768;48.562;13.414;2022-11-20T03:31:33;25.77;;;11.35;;
35648;SDS011;21768;48.562;13.414;2022-11-20T03:34:00;24.42;;;12.63;;
35648;SDS011;21768;48.562;13.414;2022-11-20T03:36:27;24.40;;;12.70;;
35648;SDS011;21768;48.562;13.414;2022-11-20T03:38:53;23.42;;;11.30;;
35648;SDS011;21768;48.562;13.414;2022-11-20T03:41:20;24.42;;;11.55;;
35648;SDS011;21768;48.562;13.414;2022-11-20T03:43:52;25.13;;;12.32;;
35648;SDS011;21768;48.562;13.414;2022-11-20T03:46:19;23.73;;;11.77;;
35648;SDS011;21768;48.562;13.414;2022-11-20T03:48:44;25.02;;;11.73;;
35648;SDS011;21768;48.562;13.414;2022-11-20T03:53:37;23.88;;;11.88;;
35648;SDS011;21768;48.562;13.414;2022-11-20T03:56:03;25.98;;;11.35;;
35648;SDS011;21768;48.562;13.414;2022-11-20T03:58:29;22.02;;;11.38;;
35648;SDS011;21768;48.562;13.414;2022-11-20T04:00:55;25.45;;;11.68;;
35648;SDS011;21768;48.562;13.414;2022-11-20T04:03:20;26.55;;;12.48;;
35648;SDS011;21768;48.562;13.414;2022-11-20T04:05:46;27.75;;;13.05;;
35648;SDS011;21768;48.562;13.414;2022-11-20T04:08:11;28.23;;;12.13;;
35648;SDS011;21768;48.562;13.414;2022-11-20T04:10:36;24.33;;;11.65;;
35648;SDS011;21768;48.562;13.414;2022-11-20T04:13:02;26.77;;;12.90;;
35648;SDS011;21768;48.562;13.414;2022-11-20T04:15:28;25.88;;;11.65;;
35648;SDS011;21768;48.562;13.414;2022-11-20T04:17:54;26.33;;;11.80;;
35648;SDS011;21768;48.562;13.414;2022-11-20T04:20:19;29.17;;;12.88;;
35648;SDS011;21768;48.562;13.414;2022-11-20T04:22:45;26.55;;;11.93;;
35648;SDS011;21768;48.562;13.414;2022-11-20T04:25:11;29.95;;;13.05;;
35648;SDS011;21768;48.562;13.414;2022-11-20T04:27:36;28.17;;;12.13;;
35648;SDS011;21768;48.562;13.414;2022-11-20T04:30:01;26.90;;;12.63;;
35648;SDS011;21768;48.562;13.414;2022-11-20T04:32:27;26.45;;;11.68;;
35648;SDS011;21768;48.562;13.414;2022-11-20T04:34:52;26.13;;;11.82;;
35648;SDS011;21768;48.562;13.414;2022-11-20T04:37:18;24.55;;;11.50;;
35648;SDS011;21768;48.562;13.414;2022-11-20T04:39:43;26.85;;;12.48;;
35648;SDS011;21768;48.562;13.414;2022-11-20T04:42:09;27.98;;;12.38;;
35648;SDS011;21768;48.562;13.414;2022-11-20T04:44:53;25.48;;;10.90;;
35648;SDS011;21768;48.562;13.414;2022-11-20T04:47:19;24.13;;;11.07;;
35648;SDS011;21768;48.562;13.414;2022-11-20T04:49:45;26.02;;;11.48;;
35648;SDS011;21768;48.562;13.414;2022-11-20T04:52:10;27.98;;;12.55;;
35648;SDS011;21768;48.562;13.414;2022-11-20T04:54:36;27.88;;;13.07;;
35648;SDS011;21768;48.562;13.414;2022-11-20T04:57:01;27.67;;;12.73;;
35648;SDS011;21768;48.562;13.414;2022-11-20T04:59:26;24.92;;;11.50;;
35648;SDS011;21768;48.562;13.414;2022-11-20T05:01:52;25.23;;;11.45;;
35648;SDS011;21768;48.562;13.414;2022-11-20T05:04:17;24.02;;;11.32;;
35648;SDS011;21768;48.562;13.414;2022-11-20T05:06:42;22.27;;;11.32;;
35648;SDS011;21768;48.562;13.414;2022-11-20T05:09:08;27.05;;;11.75;;
35648;SDS011;21768;48.562;13.414;2022-11-20T05:11:33;22.60;;;11.52;;
35648;SDS011;21768;48.562;13.414;2022-11-20T05:13:59;25.48;;;12.00;;
35648;SDS011;21768;48.562;13.414;2022-11-20T05:16:25;25.60;;;11.93;;
35648;SDS011;21768;48.562;13.414;2022-11-20T05:18:51;25.73;;;12.20;;
35648;SDS011;21768;48.562;13.414;2022-11-20T05:21:19;21.35;;;10.70;;
35648;SDS011;21768;48.562;13.414;2022-11-20T05:23:45;24.30;;;11.48;;
35648;SDS011;21768;48.562;13.414;2022-11-20T05:26:15;25.38;;;11.45;;
35648;SDS011;21768;48.562;13.414;2022-11-20T05:28:42;24.33;;;11.35;;
35648;SDS011;21768;48.562;13.414;2022-11-20T05:31:09;26.38;;;11.75;;
35648;SDS011;21768;48.562;13.414;2022-11-20T05:33:36;25.80;;;11.38;;
35648;SDS011;21768;48.562;13.414;2022-11-20T05:36:05;26.67;;;12.68;;
35648;SDS011;21768;48.562;13.414;2022-11-20T05:38:31;27.40;;;12.32;;
35648;SDS011;21768;48.562;13.414;2022-11-20T05:43:51;25.05;;;12.30;;
35648;SDS011;21768;48.562;13.414;2022-11-20T05:46:18;25.95;;;12.20;;
35648;SDS011;21768;48.562;13.414;2022-11-20T05:48:45;29.77;;;12.63;;
35648;SDS011;21768;48.562;13.414;2022-11-20T05:51:12;33.08;;;12.75;;
35648;SDS011;21768;48.562;13.414;2022-11-20T05:53:39;29.27;;;12.13;;
35648;SDS011;21768;48.562;13.414;2022-11-20T05:56:26;27.27;;;11.98;;
35648;SDS011;21768;48.562;13.414;2022-11-20T05:58:51;24.35;;;11.13;;
35648;SDS011;21768;48.562;13.414;2022-11-20T06:01:20;23.42;;;11.38;;
35648;SDS011;21768;48.562;13.414;2022-11-20T06:03:48;24.17;;;11.07;;
35648;SDS011;21768;48.562;13.414;2022-11-20T06:06:15;25.35;;;11.93;;
35648;SDS011;21768;48.562;13.414;2022-11-20T06:08:42;24.48;;;11.43;;
35648;SDS011;21768;48.562;13.414;2022-11-20T06:11:09;34.10;;;15.15;;
35648;SDS011;21768;48.562;13.414;2022-11-20T06:13:36;31.13;;;13.57;;
35648;SDS011;21768;48.562;13.414;2022-11-20T06:16:02;26.90;;;12.30;;
35648;SDS011;21768;48.562;13.414;2022-11-20T06:18:28;25.52;;;11.95;;
35648;SDS011;21768;48.562;13.414;2022-11-20T06:21:07;27.70;;;12.50;;
35648;SDS011;21768;48.562;13.414;2022-11-20T06:23:37;27.23;;;11.95;;
35648;SDS011;21768;48.562;13.414;2022-11-20T06:26:03;23.85;;;11.35;;
35648;SDS011;21768;48.562;13.414;2022-11-20T06:28:30;24.85;;;11.32;;
35648;SDS011;21768;48.562;13.414;2022-11-20T06:30:55;26.25;;;12.60;;
35648;SDS011;21768;48.562;13.414;2022-11-20T06:33:21;22.73;;;11.23;;
35648;SDS011;21768;48.562;13.414;2022-11-20T06:35:46;25.38;;;11.70;;
35648;SDS011;21768;48.562;13.414;2022-11-20T06:38:11;23.88;;;10.98;;
35648;SDS011;21768;48.562;13.414;2022-11-20T06:40:39;24.42;;;12.15;;
35648;SDS011;21768;48.562;13.414;2022-11-20T06:43:05;22.48;;;11.32;;
35648;SDS011;21768;48.562;13.414;2022-11-20T06:45:31;25.02;;;12.00;;
35648;SDS011;21768;48.562;13.414;2022-11-20T06:47:57;22.58;;;11.25;;
35648;SDS011;21768;48.562;13.414;2022-11-20T06:50:23;22.67;;;11.02;;
35648;SDS011;21768;48.562;13.414;2022-11-20T06:52:48;24.33;;;10.88;;
35648;SDS011;21768;48.562;13.414;2022-11-20T06:55:14;24.42;;;11.38;;
35648;SDS011;21768;48.562;13.414;2022-11-20T06:57:39;20.58;;;10.35;;
35648;SDS011;21768;48.562;13.414;2022-11-20T07:00:05;25.83;;;11.70;;
35648;SDS011;21768;48.562;13.414;2022-11-20T07:02:31;20.90;;;10.57;;
35648;SDS011;21768;48.562;13.414;2022-11-20T07:04:56;17.92;;;9.80;;
35648;SDS011;21768;48.562;13.414;2022-11-20T07:07:22;22.88;;;11.00;;
35648;SDS011;21768;48.562;13.414;2022-11-20T07:09:47;21.75;;;10.32;;
35648;SDS011;21768;48.562;13.414;2022-11-20T07:12:12;20.00;;;9.90;;
35648;SDS011;21768;48.562;13.414;2022-11-20T07:14:38;21.10;;;9.82;;
35648;SDS011;21768;48.562;13.414;2022-11-20T07:17:03;18.40;;;9.82;;
35648;SDS011;21768;48.562;13.414;2022-11-20T07:19:28;18.35;;;9.13;;
35648;SDS011;21768;48.562;13.414;2022-11-20T07:21:54;19.52;;;9.20;;
35648;SDS011;21768;48.562;13.414;2022-11-20T07:24:19;17.70;;;9.10;;
35648;SDS011;21768;48.562;13.414;2022-11-20T07:26:47;16.83;;;8.85;;
35648;SDS011;21768;48.562;13.414;2022-11-20T07:29:14;17.67;;;8.88;;
35648;SDS011;21768;48.562;13.414;2022-11-20T07:31:40;17.05;;;8.90;;
35648;SDS011;21768;48.562;13.414;2022-11-20T07:34:05;17.20;;;8.77;;
35648;SDS011;21768;48.562;13.414;2022-11-20T07:36:31;15.93;;;8.05;;
35648;SDS011;21768;48.562;13.414;2022-11-20T07:38:56;14.77;;;7.55;;
35648;SDS011;21768;48.562;13.414;2022-11-20T07:41:21;16.42;;;8.45;;
35648;SDS011;21768;48.562;13.414;2022-11-20T07:43:47;14.95;;;7.80;;
35648;SDS011;21768;48.562;13.414;2022-11-20T07:46:12;15.82;;;7.70;;
35648;SDS011;21768;48.562;13.414;2022-11-20T07:48:37;16.10;;;8.43;;
35648;SDS011;21768;48.562;13.414;2022-11-20T07:51:03;15.50;;;7.55;;
35648;SDS011;21768;48.562;13.414;2022-11-20T07:53:28;15.23;;;8.02;;
35648;SDS011;21768;48.562;13.414;2022-11-20T07:55:53;13.90;;;7.03;;
35648;SDS011;21768;48.562;13.414;2022-11-20T07:58:19;16.35;;;7.30;;
35648;SDS011;21768;48.562;13.414;2022-11-20T08:00:46;16.80;;;8.00;;
35648;SDS011;21768;48.562;13.414;2022-11-20T08:03:11;17.13;;;8.75;;
35648;SDS011;21768;48.562;13.414;2022-11-20T08:05:37;16.10;;;8.35;;
35648;SDS011;21768;48.562;13.414;2022-11-20T08:08:02;15.63;;;8.18;;
35648;SDS011;21768;48.562;13.414;2022-11-20T08:10:28;17.60;;;8.18;;
35648;SDS011;21768;48.562;13.414;2022-11-20T08:12:53;19.77;;;8.68;;
35648;SDS011;21768;48.562;13.414;2022-11-20T08:15:38;16.08;;;8.23;;
35648;SDS011;21768;48.562;13.414;2022-11-20T08:18:10;15.05;;;8.13;;
35648;SDS011;21768;48.562;13.414;2022-11-20T08:20:36;17.25;;;8.82;;
35648;SDS011;21768;48.562;13.414;2022-11-20T08:23:03;16.45;;;8.20;;
35648;SDS011;21768;48.562;13.414;2022-11-20T08:25:31;18.08;;;8.60;;
35648;SDS011;21768;48.562;13.414;2022-11-20T08:28:00;16.77;;;8.68;;
35648;SDS011;21768;48.562;13.414;2022-11-20T08:30:27;18.02;;;8.98;;
35648;SDS011;21768;48.562;13.414;2022-11-20T08:32:53;19.58;;;8.55;;
35648;SDS011;21768;48.562;13.414;2022-11-20T08:35:19;20.02;;;8.85;;
35648;SDS011;21768;48.562;13.414;2022-11-20T08:37:46;16.75;;;8.90;;
35648;SDS011;21768;48.562;13.414;2022-11-20T08:40:15;19.33;;;9.35;;
35648;SDS011;21768;48.562;13.414;2022-11-20T08:42:48;17.15;;;8.55;;
35648;SDS011;21768;48.562;13.414;2022-11-20T08:45:14;20.48;;;8.75;;
35648;SDS011;21768;48.562;13.414;2022-11-20T08:47:41;21.00;;;9.27;;
35648;SDS011;21768;48.562;13.414;2022-11-20T08:50:07;16.80;;;8.77;;
35648;SDS011;21768;48.562;13.414;2022-11-20T08:52:34;18.05;;;9.05;;
35648;SDS011;21768;48.562;13.414;2022-11-20T08:54:59;16.65;;;8.32;;
35648;SDS011;21768;48.562;13.414;2022-11-20T08:57:24;16.88;;;8.93;;
35648;SDS011;21768;48.562;13.414;2022-11-20T08:59:50;15.98;;;7.75;;
35648;SDS011;21768;48.562;13.414;2022-11-20T09:02:15;16.52;;;8.32;;
35648;SDS011;21768;48.562;13.414;2022-11-20T09:04:40;16.67;;;7.97;;
35648;SDS011;21768;48.562;13.414;2022-11-20T09:07:06;17.20;;;8.55;;
35648;SDS011;21768;48.562;13.414;2022-11-20T09:09:31;17.80;;;8.80;;
35648;SDS011;21768;48.562;13.414;2022-11-20T09:11:57;19.65;;;9.00;;
35648;SDS011;21768;48.562;13.414;2022-11-20T09:14:22;18.23;;;9.02;;
35648;SDS011;21768;48.562;13.414;2022-11-20T09:16:53;18.08;;;9.25;;
35648;SDS011;21768;48.562;13.414;2022-11-20T09:19:19;17.25;;;8.70;;
35648;SDS011;21768;48.562;13.414;2022-11-20T09:21:44;23.27;;;10.38;;
35648;SDS011;21768;48.562;13.414;2022-11-20T09:24:10;18.67;;;9.50;;
35648;SDS011;21768;48.562;13.414;2022-11-20T09:26:35;21.00;;;10.43;;
35648;SDS011;21768;48.562;13.414;2022-11-20T09:29:00;20.70;;;9.68;;
35648;SDS011;21768;48.562;13.414;2022-11-20T09:31:26;22.85;;;10.50;;
35648;SDS011;21768;48.562;13.414;2022-11-20T09:33:51;27.50;;;12.25;;
35648;SDS011;21768;48.562;13.414;2022-11-20T09:36:17;20.45;;;10.30;;
35648;SDS011;21768;48.562;13.414;2022-11-20T09:38:44;17.95;;;8.27;;
35648;SDS011;21768;48.562;13.414;2022-11-20T09:44:07;17.58;;;9.32;;
35648;SDS011;21768;48.562;13.414;2022-11-20T09:46:45;17.45;;;8.13;;
35648;SDS011;21768;48.562;13.414;2022-11-20T09:52:27;21.00;;;10.30;;
35648;SDS011;21768;48.562;13.414;2022-11-20T09:54:56;21.30;;;10.33;;
35648;SDS011;21768;48.562;13.414;2022-11-20T09:57:28;21.20;;;9.38;;
35648;SDS011;21768;48.562;13.414;2022-11-20T10:00:02;20.58;;;10.27;;
35648;SDS011;21768;48.562;13.414;2022-11-20T10:02:30;25.30;;;13.02;;
35648;SDS011;21768;48.562;13.414;2022-11-20T10:10:58;17.90;;;8.97;;
35648;SDS011;21768;48.562;13.414;2022-11-20T10:19:44;16.75;;;8.00;;
35648;SDS011;21768;48.562;13.414;2022-11-20T10:22:34;14.93;;;8.10;;
35648;SDS011;21768;48.562;13.414;2022-11-20T10:25:22;14.32;;;8.13;;
35648;SDS011;21768;48.562;13.414;2022-11-20T10:30:34;16.23;;;8.52;;
35648;SDS011;21768;48.562;13.414;2022-11-20T10:33:06;21.33;;;10.02;;
35648;SDS011;21768;48.562;13.414;2022-11-20T10:35:41;33.03;;;10.63;;
35648;SDS011;21768;48.562;13.414;2022-11-20T10:38:17;15.35;;;9.02;;
35648;SDS011;21768;48.562;13.414;2022-11-20T10:40:48;29.20;;;13.73;;
35648;SDS011;21768;48.562;13.414;2022-11-20T10:43:21;19.98;;;9.65;;
35648;SDS011;21768;48.562;13.414;2022-11-20T10:48:26;16.70;;;8.00;;
35648;SDS011;21768;48.562;13.414;2022-11-20T10:56:22;16.05;;;7.63;;
35648;SDS011;21768;48.562;13.414;2022-11-20T11:02:14;16.40;;;6.78;;
35648;SDS011;21768;48.562;13.414;2022-11-20T11:04:43;14.98;;;7.43;;
35648;SDS011;21768;48.562;13.414;2022-11-20T11:07:12;13.93;;;8.15;;
35648;SDS011;21768;48.562;13.414;2022-11-20T11:09:49;10.98;;;5.82;;
35648;SDS011;21768;48.562;13.414;2022-11-20T11:12:17;12.95;;;7.55;;
35648;SDS011;21768;48.562;13.414;2022-11-20T11:14:44;13.23;;;5.95;;
35648;SDS011;21768;48.562;13.414;2022-11-20T11:17:28;7.55;;;4.35;;
35648;SDS011;21768;48.562;13.414;2022-11-20T11:22:32;7.65;;;5.03;;
35648;SDS011;21768;48.562;13.414;2022-11-20T11:24:59;6.80;;;3.58;;
35648;SDS011;21768;48.562;13.414;2022-11-20T11:27:24;5.55;;;3.30;;
35648;SDS011;21768;48.562;13.414;2022-11-20T11:29:50;3.67;;;2.28;;
35648;SDS011;21768;48.562;13.414;2022-11-20T11:32:27;6.80;;;4.43;;
35648;SDS011;21768;48.562;13.414;2022-11-20T11:34:59;6.72;;;3.83;;
35648;SDS011;21768;48.562;13.414;2022-11-20T11:37:32;4.38;;;2.55;;
35648;SDS011;21768;48.562;13.414;2022-11-20T11:40:00;18.10;;;10.15;;
35648;SDS011;21768;48.562;13.414;2022-11-20T11:42:25;7.15;;;3.70;;
35648;SDS011;21768;48.562;13.414;2022-11-20T11:44:53;6.50;;;2.45;;
35648;SDS011;21768;48.562;13.414;2022-11-20T11:47:33;5.97;;;3.70;;
35648;SDS011;21768;48.562;13.414;2022-11-20T11:53:34;16.95;;;8.93;;
35648;SDS011;21768;48.562;13.414;2022-11-20T11:55:40;116.55;;;50.45;;
35648;SDS011;21768;48.562;13.414;2022-11-20T12:00:49;6.55;;;3.38;;
35648;SDS011;21768;48.562;13.414;2022-11-20T12:06:34;5.82;;;2.45;;
35648;SDS011;21768;48.562;13.414;2022-11-20T12:09:04;35.50;;;15.57;;
35648;SDS011;21768;48.562;13.414;2022-11-20T12:16:58;5.30;;;3.20;;
35648;SDS011;21768;48.562;13.414;2022-11-20T12:19:25;4.93;;;2.15;;
35648;SDS011;21768;48.562;13.414;2022-11-20T12:24:47;4.25;;;2.20;;
35648;SDS011;21768;48.562;13.414;2022-11-20T12:30:15;8.93;;;3.60;;
35648;SDS011;21768;48.562;13.414;2022-11-20T12:35:36;5.18;;;2.72;;
35648;SDS011;21768;48.562;13.414;2022-11-20T12:40:50;5.72;;;2.88;;
35648;SDS011;21768;48.562;13.414;2022-11-20T12:43:27;3.72;;;1.92;;
35648;SDS011;21768;48.562;13.414;2022-11-20T12:51:55;5.18;;;2.80;;
35648;SDS011;21768;48.562;13.414;2022-11-20T13:00:18;3.22;;;2.10;;
35648;SDS011;21768;48.562;13.414;2022-11-20T13:08:43;14.95;;;5.95;;
35648;SDS011;21768;48.562;13.414;2022-11-20T13:11:18;5.38;;;2.03;;
35648;SDS011;21768;48.562;13.414;2022-11-20T13:16:25;14.38;;;6.07;;
35648;SDS011;21768;48.562;13.414;2022-11-20T13:19:04;4.13;;;2.08;;
35648;SDS011;21768;48.562;13.414;2022-11-20T13:21:42;28.10;;;10.50;;
35648;SDS011;21768;48.562;13.414;2022-11-20T13:26:59;5.72;;;2.22;;
35648;SDS011;21768;48.562;13.414;2022-11-20T13:29:25;4.55;;;2.03;;
35648;SDS011;21768;48.562;13.414;2022-11-20T13:32:00;2.40;;;1.70;;
35648;SDS011;21768;48.562;13.414;2022-11-20T13:34:28;9.95;;;4.00;;
35648;SDS011;21768;48.562;13.414;2022-11-20T13:36:55;5.35;;;2.63;;
35648;SDS011;21768;48.562;13.414;2022-11-20T13:39:30;3.50;;;2.05;;
35648;SDS011;21768;48.562;13.414;2022-11-20T13:42:18;4.95;;;1.95;;
35648;SDS011;21768;48.562;13.414;2022-11-20T13:44:53;4.15;;;2.25;;
35648;SDS011;21768;48.562;13.414;2022-11-20T13:47:24;3.83;;;2.10;;
35648;SDS011;21768;48.562;13.414;2022-11-20T13:49:51;3.05;;;1.92;;
35648;SDS011;21768;48.562;13.414;2022-11-20T13:55:37;2.78;;;2.10;;
35648;SDS011;21768;48.562;13.414;2022-11-20T13:58:20;6.53;;;4.00;;
35648;SDS011;21768;48.562;13.414;2022-11-20T14:03:22;9.48;;;3.20;;
35648;SDS011;21768;48.562;13.414;2022-11-20T14:05:56;13.50;;;6.22;;
35648;SDS011;21768;48.562;13.414;2022-11-20T14:08:32;4.32;;;2.70;;
35648;SDS011;21768;48.562;13.414;2022-11-20T14:11:11;8.57;;;3.85;;
35648;SDS011;21768;48.562;13.414;2022-11-20T14:13:50;6.85;;;3.15;;
35648;SDS011;21768;48.562;13.414;2022-11-20T14:16:20;4.68;;;2.13;;
35648;SDS011;21768;48.562;13.414;2022-11-20T14:18:46;3.92;;;2.38;;
35648;SDS011;21768;48.562;13.414;2022-11-20T14:21:20;4.95;;;2.75;;
35648;SDS011;21768;48.562;13.414;2022-11-20T14:23:47;6.82;;;2.33;;
35648;SDS011;21768;48.562;13.414;2022-11-20T14:26:14;4.40;;;1.85;;
35648;SDS011;21768;48.562;13.414;2022-11-20T14:28:47;2.75;;;1.90;;
35648;SDS011;21768;48.562;13.414;2022-11-20T14:31:17;4.07;;;2.10;;
35648;SDS011;21768;48.562;13.414;2022-11-20T14:33:53;5.43;;;3.08;;
35648;SDS011;21768;48.562;13.414;2022-11-20T14:36:20;21.98;;;10.38;;
35648;SDS011;21768;48.562;13.414;2022-11-20T14:38:48;3.95;;;2.25;;
35648;SDS011;21768;48.562;13.414;2022-11-20T14:41:23;3.63;;;2.08;;
35648;SDS011;21768;48.562;13.414;2022-11-20T14:43:56;10.23;;;7.40;;
35648;SDS011;21768;48.562;13.414;2022-11-20T14:46:23;9.30;;;3.75;;
35648;SDS011;21768;48.562;13.414;2022-11-20T14:48:50;4.78;;;2.40;;
35648;SDS011;21768;48.562;13.414;2022-11-20T14:51:30;4.60;;;2.17;;
35648;SDS011;21768;48.562;13.414;2022-11-20T14:54:14;5.80;;;2.45;;
35648;SDS011;21768;48.562;13.414;2022-11-20T14:57:02;2.78;;;1.90;;
35648;SDS011;21768;48.562;13.414;2022-11-20T14:59:32;3.88;;;2.10;;
35648;SDS011;21768;48.562;13.414;2022-11-20T15:04:29;3.13;;;1.85;;
35648;SDS011;21768;48.562;13.414;2022-11-20T15:06:55;2.50;;;1.63;;
35648;SDS011;21768;48.562;13.414;2022-11-20T15:09:23;3.70;;;1.55;;
35648;SDS011;21768;48.562;13.414;2022-11-20T15:11:54;2.75;;;1.77;;
35648;SDS011;21768;48.562;13.414;2022-11-20T15:14:25;2.85;;;1.63;;
35648;SDS011;21768;48.562;13.414;2022-11-20T15:16:52;4.22;;;1.98;;
35648;SDS011;21768;48.562;13.414;2022-11-20T15:19:19;3.70;;;1.60;;
35648;SDS011;21768;48.562;13.414;2022-11-20T15:21:46;3.92;;;1.40;;
35648;SDS011;21768;48.562;13.414;2022-11-20T15:24:12;5.40;;;2.60;;
35648;SDS011;21768;48.562;13.414;2022-11-20T15:26:37;3.90;;;1.70;;
35648;SDS011;21768;48.562;13.414;2022-11-20T15:29:10;3.53;;;1.63;;
35648;SDS011;21768;48.562;13.414;2022-11-20T15:31:38;2.28;;;1.42;;
35648;SDS011;21768;48.562;13.414;2022-11-20T15:34:11;3.10;;;1.95;;
35648;SDS011;21768;48.562;13.414;2022-11-20T15:36:41;4.72;;;1.40;;
35648;SDS011;21768;48.562;13.414;2022-11-20T15:39:07;3.13;;;1.70;;
35648;SDS011;21768;48.562;13.414;2022-11-20T15:41:34;3.25;;;1.75;;
35648;SDS011;21768;48.562;13.414;2022-11-20T15:44:00;3.55;;;1.38;;
35648;SDS011;21768;48.562;13.414;2022-11-20T15:46:26;1.80;;;1.30;;
35648;SDS011;21768;48.562;13.414;2022-11-20T15:48:54;3.92;;;1.50;;
35648;SDS011;21768;48.562;13.414;2022-11-20T15:51:27;3.83;;;1.75;;
35648;SDS011;21768;48.562;13.414;2022-11-20T15:53:55;3.25;;;1.58;;
35648;SDS011;21768;48.562;13.414;2022-11-20T15:56:21;1.88;;;1.27;;
35648;SDS011;21768;48.562;13.414;2022-11-20T15:58:47;3.97;;;1.50;;
35648;SDS011;21768;48.562;13.414;2022-11-20T16:01:13;3.50;;;1.40;;
35648;SDS011;21768;48.562;13.414;2022-11-20T16:03:40;4.68;;;2.42;;
35648;SDS011;21768;48.562;13.414;2022-11-20T16:06:06;3.50;;;1.70;;
35648;SDS011;21768;48.562;13.414;2022-11-20T16:08:31;3.50;;;1.60;;
35648;SDS011;21768;48.562;13.414;2022-11-20T16:10:57;3.67;;;1.20;;